createdAt,value
2022-10-31T00:01:37.923Z,9.80
2022-10-31T00:04:06.940Z,9.77
2022-10-31T00:06:34.924Z,9.77
2022-10-31T00:09:05.353Z,9.71
2022-10-31T00:11:33.143Z,9.71
2022-10-31T00:14:01.923Z,9.76
2022-10-31T00:16:30.603Z,9.83
2022-10-31T00:19:02.777Z,9.88
2022-10-31T00:21:32.861Z,9.91
2022-10-31T00:24:01.472Z,9.94
2022-10-31T00:26:31.883Z,9.90
2022-10-31T00:29:01.169Z,9.83
2022-10-31T00:31:29.762Z,9.74
2022-10-31T00:33:59.434Z,9.67
2022-10-31T00:36:28.242Z,9.66
2022-10-31T00:38:56.362Z,9.64
2022-10-31T00:41:25.358Z,9.63
2022-10-31T00:43:53.097Z,9.57
2022-10-31T00:46:20.805Z,9.57
2022-10-31T00:48:48.513Z,9.52
2022-10-31T00:51:16.241Z,9.52
2022-10-31T00:53:44.606Z,9.49
2022-10-31T00:56:12.381Z,9.48
2022-10-31T00:58:40.183Z,9.48
2022-10-31T01:01:10.054Z,9.45
2022-10-31T01:03:39.661Z,9.43
2022-10-31T01:06:14.262Z,9.48
2022-10-31T01:08:42.031Z,9.50
2022-10-31T01:11:24.666Z,9.51
2022-10-31T01:13:54.721Z,9.51
2022-10-31T01:16:26.260Z,9.45
2022-10-31T01:18:54.301Z,9.42
2022-10-31T01:21:28.119Z,9.38
2022-10-31T01:23:59.415Z,9.27
2022-10-31T01:26:32.892Z,9.17
2022-10-31T01:29:06.040Z,9.16
2022-10-31T01:31:40.477Z,9.14
2022-10-31T01:34:08.461Z,9.11
2022-10-31T01:36:39.032Z,9.05
2022-10-31T01:39:13.977Z,9.03
2022-10-31T01:41:49.287Z,9.02
2022-10-31T01:44:17.145Z,8.99
2022-10-31T01:46:51.543Z,8.82
2022-10-31T01:49:58.748Z,8.89
2022-10-31T01:52:47.128Z,8.87
2022-10-31T01:55:35.114Z,8.86
2022-10-31T01:58:15.744Z,8.81
2022-10-31T02:00:52.313Z,8.86
2022-10-31T02:03:22.756Z,8.93
2022-10-31T02:05:52.051Z,8.92
2022-10-31T02:08:31.938Z,8.93
2022-10-31T02:11:01.357Z,8.93
2022-10-31T02:13:30.753Z,8.90
2022-10-31T02:16:00.930Z,8.74
2022-10-31T02:18:32.134Z,8.77
2022-10-31T02:21:26.095Z,8.72
2022-10-31T02:24:27.777Z,8.67
2022-10-31T02:27:22.780Z,8.56
2022-10-31T02:30:18.243Z,8.55
2022-10-31T02:33:01.220Z,8.53
2022-10-31T02:35:42.812Z,8.52
2022-10-31T02:38:57.961Z,8.61
2022-10-31T02:41:57.012Z,8.61
2022-10-31T02:44:57.442Z,8.52
2022-10-31T02:47:37.830Z,8.43
2022-10-31T02:50:26.804Z,8.33
2022-10-31T02:52:54.793Z,8.31
2022-10-31T02:55:25.983Z,8.26
2022-10-31T02:58:23.475Z,8.21
2022-10-31T03:01:25.529Z,8.21
2022-10-31T03:04:02.166Z,8.16
2022-10-31T03:06:55.773Z,8.17
2022-10-31T03:09:40.423Z,8.19
2022-10-31T03:12:49.231Z,8.17
2022-10-31T03:15:28.329Z,8.19
2022-10-31T03:18:09.438Z,8.17
2022-10-31T03:20:57.756Z,8.15
2022-10-31T03:23:27.792Z,8.17
2022-10-31T03:25:56.403Z,8.17
2022-10-31T03:28:35.603Z,8.21
2022-10-31T03:31:08.049Z,8.28
2022-10-31T03:33:43.668Z,8.36
2022-10-31T03:36:16.773Z,8.42
2022-10-31T03:38:48.146Z,8.48
2022-10-31T03:41:25.209Z,8.42
2022-10-31T03:44:03.506Z,8.39
2022-10-31T03:46:31.518Z,8.32
2022-10-31T03:49:01.099Z,8.26
2022-10-31T03:51:44.243Z,8.28
2022-10-31T03:54:41.105Z,8.26
2022-10-31T03:57:25.628Z,8.24
2022-10-31T04:00:06.818Z,8.25
2022-10-31T04:03:08.875Z,8.22
2022-10-31T04:05:40.394Z,8.22
2022-10-31T04:08:17.978Z,8.23
2022-10-31T04:10:51.117Z,8.21
2022-10-31T04:13:29.213Z,8.16
2022-10-31T04:16:05.115Z,8.14
2022-10-31T04:18:34.550Z,8.15
2022-10-31T04:21:09.086Z,8.17
2022-10-31T04:23:37.743Z,8.16
2022-10-31T04:26:16.016Z,8.10
2022-10-31T04:28:45.465Z,8.05
2022-10-31T04:31:15.405Z,8.03
2022-10-31T04:33:45.791Z,8.02
2022-10-31T04:36:14.396Z,7.99
2022-10-31T04:38:45.160Z,7.93
2022-10-31T04:41:27.051Z,7.87
2022-10-31T04:44:01.255Z,7.82
2022-10-31T04:46:29.504Z,7.76
2022-10-31T04:48:59.083Z,7.69
2022-10-31T04:51:26.973Z,7.66
2022-10-31T04:53:55.142Z,7.62
2022-10-31T04:56:29.126Z,7.62
2022-10-31T04:59:00.677Z,7.61
2022-10-31T05:01:34.055Z,7.60
2022-10-31T05:04:02.852Z,7.60
2022-10-31T05:06:33.524Z,7.60
2022-10-31T05:09:01.443Z,7.53
2022-10-31T05:11:30.228Z,7.60
2022-10-31T05:14:07.448Z,7.60
2022-10-31T05:17:10.678Z,7.61
2022-10-31T05:20:08.738Z,7.60
2022-10-31T05:22:58.281Z,7.59
2022-10-31T05:25:29.530Z,7.59
2022-10-31T05:27:58.611Z,7.58
2022-10-31T05:30:33.148Z,7.58
2022-10-31T05:33:02.092Z,7.53
2022-10-31T05:35:56.317Z,7.50
2022-10-31T05:38:41.825Z,7.50
2022-10-31T05:41:18.265Z,7.51
2022-10-31T05:43:48.778Z,7.55
2022-10-31T05:46:20.225Z,7.56
2022-10-31T05:49:26.624Z,7.58
2022-10-31T05:52:13.512Z,7.59
2022-10-31T05:54:50.267Z,7.57
2022-10-31T05:57:18.724Z,7.55
2022-10-31T05:59:49.945Z,7.63
2022-10-31T06:02:23.554Z,7.67
2022-10-31T06:05:15.257Z,7.76
2022-10-31T06:07:44.267Z,7.82
2022-10-31T06:10:13.074Z,7.90
2022-10-31T06:12:41.976Z,7.99
2022-10-31T06:15:24.501Z,8.07
2022-10-31T06:18:05.926Z,8.14
2022-10-31T06:20:53.509Z,8.23
2022-10-31T06:23:21.448Z,8.31
2022-10-31T06:25:53.979Z,8.39
2022-10-31T06:28:22.234Z,8.48
2022-10-31T06:30:56.696Z,8.55
2022-10-31T06:33:25.170Z,8.64
2022-10-31T06:36:03.355Z,8.72
2022-10-31T06:38:31.186Z,8.81
2022-10-31T06:41:05.268Z,8.91
2022-10-31T06:43:43.185Z,9.00
2022-10-31T06:46:31.007Z,9.15
2022-10-31T06:49:15.144Z,9.28
2022-10-31T06:51:55.456Z,9.42
2022-10-31T06:54:23.762Z,9.55
2022-10-31T06:56:51.863Z,9.72
2022-10-31T06:59:20.652Z,9.82
2022-10-31T07:02:08.796Z,9.95
2022-10-31T07:04:36.734Z,10.11
2022-10-31T07:07:04.731Z,10.27
2022-10-31T07:09:33.473Z,10.39
2022-10-31T07:12:04.830Z,10.58
2022-10-31T07:14:36.517Z,10.70
2022-10-31T07:17:04.374Z,10.85
2022-10-31T07:19:41.976Z,11.00
2022-10-31T07:22:11.074Z,11.18
2022-10-31T07:24:41.039Z,11.35
2022-10-31T07:27:27.481Z,11.52
2022-10-31T07:29:55.684Z,11.70
2022-10-31T07:32:23.591Z,11.86
2022-10-31T07:34:57.699Z,12.03
2022-10-31T07:37:34.393Z,12.22
2022-10-31T07:40:04.478Z,12.28
2022-10-31T07:42:41.638Z,12.54
2022-10-31T07:45:28.030Z,12.74
2022-10-31T07:48:28.315Z,12.96
2022-10-31T07:51:31.500Z,13.18
2022-10-31T07:54:28.474Z,13.29
2022-10-31T07:56:56.413Z,13.50
2022-10-31T07:59:24.752Z,13.68
2022-10-31T08:01:52.730Z,13.90
2022-10-31T08:04:40.459Z,14.12
2022-10-31T08:07:38.858Z,14.39
2022-10-31T08:10:10.413Z,14.58
2022-10-31T08:12:38.172Z,14.79
2022-10-31T08:15:09.714Z,14.99
2022-10-31T08:17:39.339Z,15.18
2022-10-31T08:20:09.535Z,15.34
2022-10-31T08:22:53.137Z,15.53
2022-10-31T08:25:21.522Z,15.71
2022-10-31T08:27:57.257Z,15.91
2022-10-31T08:30:29.807Z,16.12
2022-10-31T08:55:37.109Z,16.72
2022-10-31T08:58:17.417Z,17.07
2022-10-31T09:00:53.782Z,17.44
2022-10-31T09:03:29.345Z,17.77
2022-10-31T09:06:04.100Z,18.07
2022-10-31T09:08:33.658Z,18.36
2022-10-31T09:11:03.678Z,18.65
2022-10-31T09:13:49.921Z,18.93
2022-10-31T09:16:35.779Z,19.20
2022-10-31T09:19:08.665Z,19.45
2022-10-31T09:21:39.243Z,19.67
2022-10-31T09:24:07.226Z,19.88
2022-10-31T09:26:35.350Z,20.09
2022-10-31T09:29:13.950Z,20.31
2022-10-31T09:31:44.914Z,20.49
2022-10-31T09:34:32.889Z,20.67
2022-10-31T09:37:08.523Z,20.84
2022-10-31T09:39:36.877Z,21.02
2022-10-31T09:43:07.609Z,21.18
2022-10-31T09:46:09.530Z,21.35
2022-10-31T09:49:34.081Z,21.49
2022-10-31T09:52:32.336Z,21.61
2022-10-31T09:55:18.146Z,21.71
2022-10-31T09:57:48.139Z,21.78
2022-10-31T10:00:18.772Z,21.79
2022-10-31T10:02:56.431Z,21.83
2022-10-31T10:05:38.096Z,21.91
2022-10-31T10:08:22.178Z,21.95
2022-10-31T10:12:01.855Z,21.99
2022-10-31T10:14:38.642Z,21.99
2022-10-31T10:17:49.884Z,22.01
2022-10-31T10:20:33.343Z,22.05
2022-10-31T10:23:32.124Z,22.07
2022-10-31T10:26:22.609Z,22.16
2022-10-31T10:29:15.819Z,22.21
2022-10-31T10:31:47.050Z,22.29
2022-10-31T10:34:47.253Z,22.35
2022-10-31T10:37:32.842Z,22.40
2022-10-31T10:40:27.388Z,22.48
2022-10-31T10:43:24.374Z,22.53
2022-10-31T10:46:35.914Z,22.63
2022-10-31T10:49:25.174Z,22.67
2022-10-31T10:52:40.828Z,22.71
2022-10-31T10:55:48.904Z,22.89
2022-10-31T10:58:17.455Z,22.99
2022-10-31T11:00:50.728Z,23.04
2022-10-31T11:03:20.258Z,23.12
2022-10-31T11:05:54.913Z,23.20
2022-10-31T11:08:37.603Z,23.30
2022-10-31T11:11:17.705Z,23.38
2022-10-31T11:13:50.178Z,23.43
2022-10-31T11:16:44.362Z,23.49
2022-10-31T11:19:27.513Z,23.55
2022-10-31T11:22:06.250Z,23.57
2022-10-31T11:24:41.714Z,23.58
2022-10-31T11:27:25.823Z,23.47
2022-10-31T11:29:59.717Z,23.36
2022-10-31T11:32:30.816Z,23.34
2022-10-31T11:35:10.286Z,23.44
2022-10-31T11:37:44.899Z,23.57
2022-10-31T11:40:26.425Z,23.66
2022-10-31T11:43:00.474Z,23.68
2022-10-31T11:45:34.926Z,23.75
2022-10-31T11:48:15.888Z,23.81
2022-10-31T11:50:56.815Z,23.95
2022-10-31T11:53:56.753Z,24.05
2022-10-31T11:56:27.931Z,24.08
2022-10-31T11:59:16.017Z,24.13
2022-10-31T12:01:50.871Z,24.26
2022-10-31T12:04:19.474Z,24.38
2022-10-31T12:06:48.804Z,24.45
2022-10-31T12:09:31.631Z,24.48
2022-10-31T12:12:26.886Z,24.47
2022-10-31T12:15:25.229Z,24.51
2022-10-31T12:18:01.469Z,24.58
2022-10-31T12:21:13.782Z,24.61
2022-10-31T12:24:26.140Z,24.66
2022-10-31T12:27:47.006Z,24.68
2022-10-31T12:30:39.149Z,24.64
2022-10-31T12:33:31.147Z,24.65
2022-10-31T12:36:01.889Z,24.69
2022-10-31T12:39:07.004Z,24.66
2022-10-31T12:42:38.380Z,24.63
2022-10-31T12:45:34.689Z,24.57
2022-10-31T12:48:18.026Z,24.56
2022-10-31T12:51:14.176Z,24.62
2022-10-31T12:54:28.088Z,24.59
2022-10-31T12:57:21.394Z,24.58
2022-10-31T13:00:01.471Z,24.59
2022-10-31T13:02:58.132Z,24.61
2022-10-31T13:05:47.510Z,24.61
2022-10-31T13:08:25.545Z,24.62
2022-10-31T13:11:34.631Z,24.62
2022-10-31T13:14:26.248Z,24.61
2022-10-31T13:16:56.679Z,24.59
2022-10-31T13:19:35.609Z,24.59
2022-10-31T13:22:17.398Z,24.50
2022-10-31T13:25:02.819Z,24.55
2022-10-31T13:28:02.284Z,24.53
2022-10-31T13:30:42.767Z,24.52
2022-10-31T13:33:31.043Z,24.50
2022-10-31T13:36:33.678Z,24.50
2022-10-31T13:39:19.364Z,24.49
2022-10-31T13:42:03.159Z,24.48
2022-10-31T13:44:37.363Z,24.47
2022-10-31T13:48:43.671Z,24.55
2022-10-31T13:51:12.382Z,24.43
2022-10-31T13:53:49.275Z,24.40
2022-10-31T13:56:31.520Z,24.35
2022-10-31T13:59:11.173Z,24.31
2022-10-31T14:01:53.003Z,24.28
2022-10-31T14:04:57.131Z,24.25
2022-10-31T14:07:28.767Z,24.22
2022-10-31T14:10:17.953Z,24.20
2022-10-31T14:12:49.768Z,24.15
2022-10-31T14:15:22.518Z,24.09
2022-10-31T14:18:06.771Z,23.97
2022-10-31T14:20:44.829Z,23.96
2022-10-31T14:23:41.575Z,23.91
2022-10-31T14:26:19.225Z,23.84
2022-10-31T14:28:49.796Z,23.77
2022-10-31T14:31:42.282Z,23.61
2022-10-31T14:34:12.449Z,23.55
2022-10-31T14:36:55.279Z,23.49
2022-10-31T14:40:01.408Z,23.38
2022-10-31T14:43:21.495Z,23.28
2022-10-31T14:46:02.100Z,23.20
2022-10-31T14:49:03.531Z,23.14
2022-10-31T14:51:41.470Z,22.98
2022-10-31T14:54:21.247Z,22.93
2022-10-31T14:57:05.330Z,22.84
2022-10-31T14:59:39.104Z,22.75
2022-10-31T15:02:29.684Z,22.63
2022-10-31T15:04:59.985Z,22.48
2022-10-31T15:07:31.374Z,22.42
2022-10-31T15:10:22.278Z,22.34
2022-10-31T15:12:50.103Z,22.26
2022-10-31T15:15:27.073Z,22.18
2022-10-31T15:18:05.653Z,22.12
2022-10-31T15:20:44.044Z,22.04
2022-10-31T15:23:18.838Z,21.95
2022-10-31T15:25:47.623Z,21.89
2022-10-31T15:28:25.108Z,21.79
2022-10-31T15:30:59.432Z,21.60
2022-10-31T15:33:45.229Z,21.43
2022-10-31T15:36:27.643Z,21.21
2022-10-31T15:39:00.809Z,21.00
2022-10-31T15:41:40.043Z,20.77
2022-10-31T15:44:20.640Z,20.60
2022-10-31T15:47:06.391Z,20.41
2022-10-31T15:49:37.830Z,20.21
2022-10-31T15:52:30.750Z,20.15
2022-10-31T15:55:22.721Z,20.09
2022-10-31T15:57:56.802Z,20.02
2022-10-31T16:00:38.433Z,19.92
2022-10-31T16:03:16.254Z,19.87
2022-10-31T16:05:55.663Z,19.76
2022-10-31T16:08:37.223Z,19.65
2022-10-31T16:11:07.729Z,19.49
2022-10-31T16:13:42.805Z,19.35
2022-10-31T16:19:19.040Z,19.05
2022-10-31T16:21:52.425Z,18.92
2022-10-31T16:24:29.015Z,18.78
2022-10-31T16:27:08.312Z,18.65
2022-10-31T16:29:44.473Z,18.54
2022-10-31T16:32:52.032Z,18.42
2022-10-31T16:35:38.587Z,18.28
2022-10-31T16:38:07.115Z,18.19
2022-10-31T16:40:38.773Z,18.14
2022-10-31T16:43:13.008Z,18.06
2022-10-31T16:45:49.445Z,17.97
2022-10-31T16:48:24.280Z,17.88
2022-10-31T16:50:54.205Z,17.79
2022-10-31T16:53:21.983Z,17.70
2022-10-31T16:55:57.738Z,17.58
2022-10-31T16:58:36.737Z,17.47
2022-10-31T17:01:08.070Z,17.37
2022-10-31T17:03:36.629Z,17.26
2022-10-31T17:06:04.857Z,17.16
2022-10-31T17:08:33.179Z,17.09
2022-10-31T17:11:01.085Z,17.00
2022-10-31T17:13:32.550Z,16.90
2022-10-31T17:16:03.654Z,16.75
2022-10-31T17:18:31.714Z,16.65
2022-10-31T17:21:03.908Z,16.53
2022-10-31T17:23:33.328Z,16.45
2022-10-31T17:26:01.253Z,16.34
2022-10-31T17:28:28.923Z,16.31
2022-10-31T17:30:59.154Z,16.26
2022-10-31T17:33:27.031Z,16.18
2022-10-31T17:35:54.915Z,16.15
2022-10-31T17:38:22.757Z,16.09
2022-10-31T17:40:50.868Z,16.00
2022-10-31T17:43:18.971Z,16.00
2022-10-31T17:45:46.751Z,15.95
2022-10-31T17:48:14.517Z,15.89
2022-10-31T17:50:42.146Z,15.79
2022-10-31T17:53:09.827Z,15.75
2022-10-31T17:55:37.829Z,15.72
2022-10-31T17:58:06.222Z,15.67
2022-10-31T18:00:34.368Z,15.54
2022-10-31T18:03:04.633Z,15.41
2022-10-31T18:05:33.461Z,15.31
2022-10-31T18:10:41.794Z,15.14
2022-10-31T18:13:09.589Z,15.05
2022-10-31T18:15:40.208Z,15.02
2022-10-31T18:18:07.922Z,14.93
